createdAt,value
2018-03-27T00:00:02.797Z,4.37
2018-03-27T00:00:34.449Z,4.37
2018-03-27T00:01:06.104Z,4.37
2018-03-27T00:01:37.744Z,4.37
2018-03-27T00:02:09.376Z,4.37
2018-03-27T00:02:41.000Z,4.37
2018-03-27T00:03:12.631Z,4.37
2018-03-27T00:03:44.277Z,4.37
2018-03-27T00:04:15.904Z,4.37
2018-03-27T00:04:47.551Z,4.37
2018-03-27T00:05:19.216Z,4.37
2018-03-27T00:05:50.865Z,4.37
2018-03-27T00:06:22.504Z,4.37
2018-03-27T00:06:54.156Z,4.37
2018-03-27T00:07:25.800Z,4.37
2018-03-27T00:07:57.422Z,4.37
2018-03-27T00:08:29.067Z,4.37
2018-03-27T00:09:00.690Z,4.37
2018-03-27T00:09:32.332Z,4.37
2018-03-27T00:10:04.000Z,4.37
2018-03-27T00:10:35.666Z,4.37
2018-03-27T00:11:07.368Z,4.37
2018-03-27T00:11:38.994Z,4.37
2018-03-27T00:12:10.650Z,4.37
2018-03-27T00:12:42.284Z,4.37
2018-03-27T00:13:13.933Z,4.37
2018-03-27T00:13:45.578Z,4.37
2018-03-27T00:14:17.240Z,4.37
2018-03-27T00:14:48.870Z,4.37
2018-03-27T00:15:20.506Z,4.37
2018-03-27T00:15:52.168Z,4.37
2018-03-27T00:16:23.785Z,3.94
2018-03-27T00:16:55.414Z,3.94
2018-03-27T00:17:27.043Z,3.94
2018-03-27T00:17:58.701Z,3.94
2018-03-27T00:18:30.301Z,3.94
2018-03-27T00:19:01.956Z,3.94
2018-03-27T00:19:33.589Z,3.94
2018-03-27T00:20:05.238Z,3.94
2018-03-27T00:20:36.888Z,3.94
2018-03-27T00:21:08.516Z,3.94
2018-03-27T00:21:40.172Z,3.94
2018-03-27T00:22:11.796Z,3.94
2018-03-27T00:22:43.452Z,3.94
2018-03-27T00:23:15.081Z,3.94
2018-03-27T00:23:46.708Z,3.94
2018-03-27T00:24:18.329Z,3.94
2018-03-27T00:24:49.956Z,3.94
2018-03-27T00:25:21.638Z,3.94
2018-03-27T00:25:53.280Z,3.94
2018-03-27T00:26:24.924Z,3.94
2018-03-27T00:27:00.126Z,3.94
2018-03-27T00:27:50.076Z,3.94
2018-03-27T00:28:46.437Z,3.94
2018-03-27T00:29:42.776Z,3.94
2018-03-27T00:30:39.090Z,3.94
2018-03-27T00:31:35.404Z,3.94
2018-03-27T00:32:31.592Z,3.94
2018-03-27T00:33:28.128Z,3.94
2018-03-27T00:34:24.562Z,3.94
2018-03-27T00:35:20.968Z,3.94
2018-03-27T00:36:17.340Z,3.94
2018-03-27T00:37:13.473Z,3.94
2018-03-27T00:38:09.900Z,3.94
2018-03-27T00:39:06.384Z,3.94
2018-03-27T00:40:02.656Z,3.94
2018-03-27T00:40:42.078Z,3.94
2018-03-27T00:42:58.328Z,3.94
2018-03-27T00:43:29.874Z,3.94
2018-03-27T00:44:01.462Z,3.94
2018-03-27T00:44:33.020Z,3.94
2018-03-27T00:45:04.563Z,3.94
2018-03-27T00:45:36.096Z,3.94
2018-03-27T00:46:07.643Z,3.94
2018-03-27T00:46:39.204Z,3.94
2018-03-27T00:47:10.746Z,3.94
2018-03-27T00:47:42.272Z,3.94
2018-03-27T00:48:13.822Z,3.94
2018-03-27T00:48:45.368Z,3.94
2018-03-27T00:49:16.934Z,3.94
2018-03-27T00:49:48.560Z,3.94
2018-03-27T00:50:20.186Z,3.94
2018-03-27T00:50:51.804Z,3.94
2018-03-27T00:51:23.446Z,3.94
2018-03-27T00:51:55.106Z,3.94
2018-03-27T00:52:26.736Z,3.94
2018-03-27T00:52:58.364Z,3.94
2018-03-27T00:53:29.982Z,3.94
2018-03-27T00:54:01.619Z,3.94
2018-03-27T00:54:33.254Z,3.94
2018-03-27T00:55:04.918Z,3.94
2018-03-27T00:55:36.556Z,3.94
2018-03-27T00:56:08.204Z,3.94
2018-03-27T00:56:39.855Z,3.94
2018-03-27T00:57:11.466Z,3.94
2018-03-27T00:57:43.105Z,3.94
2018-03-27T00:58:14.722Z,3.94
2018-03-27T00:58:46.378Z,3.94
2018-03-27T00:59:17.996Z,3.94
2018-03-27T00:59:49.622Z,3.94
2018-03-27T01:00:21.292Z,3.94
2018-03-27T01:00:52.954Z,3.94
2018-03-27T01:01:24.580Z,3.94
2018-03-27T01:01:56.220Z,3.94
2018-03-27T01:02:27.835Z,3.94
2018-03-27T01:02:59.451Z,3.94
2018-03-27T01:03:31.071Z,3.94
2018-03-27T01:04:02.710Z,3.94
2018-03-27T01:04:34.382Z,3.94
2018-03-27T01:05:08.937Z,3.94
2018-03-27T01:05:40.566Z,3.94
2018-03-27T01:06:12.206Z,3.94
2018-03-27T01:06:43.853Z,3.94
2018-03-27T01:07:15.496Z,3.94
2018-03-27T01:07:47.132Z,3.94
2018-03-27T01:08:18.768Z,3.94
2018-03-27T01:08:50.400Z,3.94
2018-03-27T01:09:22.054Z,3.94
2018-03-27T01:09:53.698Z,3.94
2018-03-27T01:10:25.330Z,3.94
2018-03-27T01:10:56.972Z,3.94
2018-03-27T01:11:28.592Z,3.94
2018-03-27T01:12:00.239Z,3.94
2018-03-27T01:12:31.913Z,3.94
2018-03-27T01:13:03.561Z,3.94
2018-03-27T01:13:35.218Z,3.94
2018-03-27T01:14:06.874Z,3.94
2018-03-27T01:14:38.518Z,3.94
2018-03-27T01:15:10.203Z,3.94
2018-03-27T01:15:41.834Z,3.94
2018-03-27T01:16:13.472Z,3.94
2018-03-27T01:16:45.130Z,3.94
2018-03-27T01:17:16.780Z,3.94
2018-03-27T01:17:48.391Z,3.94
2018-03-27T01:18:20.023Z,3.94
2018-03-27T01:18:51.648Z,3.94
2018-03-27T01:19:23.308Z,3.94
2018-03-27T01:19:55.000Z,3.94
2018-03-27T01:20:26.656Z,3.94
2018-03-27T01:20:58.327Z,3.94
2018-03-27T01:21:29.955Z,3.94
2018-03-27T01:22:01.634Z,3.94
2018-03-27T01:22:33.286Z,3.94
2018-03-27T01:23:04.914Z,3.94
2018-03-27T01:23:36.526Z,3.94
2018-03-27T01:24:08.193Z,3.94
2018-03-27T01:24:39.824Z,3.94
2018-03-27T01:25:11.456Z,3.94
2018-03-27T01:25:43.090Z,3.94
2018-03-27T01:26:14.716Z,3.94
2018-03-27T01:26:46.356Z,3.94
2018-03-27T01:27:17.978Z,3.94
2018-03-27T01:27:49.610Z,3.94
2018-03-27T01:28:21.254Z,3.94
2018-03-27T01:28:52.855Z,3.94
2018-03-27T01:29:24.479Z,3.94
2018-03-27T01:29:56.102Z,3.94
2018-03-27T01:30:27.748Z,3.94
2018-03-27T01:30:59.360Z,3.94
2018-03-27T01:31:30.996Z,3.94
2018-03-27T01:32:02.640Z,3.94
2018-03-27T01:32:34.278Z,3.94
2018-03-27T01:33:05.900Z,3.94
2018-03-27T01:33:37.526Z,3.94
2018-03-27T01:34:09.159Z,3.94
2018-03-27T01:34:40.784Z,3.94
2018-03-27T01:35:12.390Z,3.94
2018-03-27T01:35:44.046Z,3.94
2018-03-27T01:36:15.680Z,3.94
2018-03-27T01:36:47.337Z,3.94
2018-03-27T01:37:18.963Z,3.94
2018-03-27T01:37:50.579Z,3.94
2018-03-27T01:38:22.212Z,3.94
2018-03-27T01:38:53.903Z,3.94
2018-03-27T01:39:25.550Z,3.94
2018-03-27T01:39:57.176Z,3.94
2018-03-27T01:40:28.800Z,3.94
2018-03-27T01:41:00.447Z,3.94
2018-03-27T01:41:32.100Z,3.94
2018-03-27T01:42:03.749Z,3.94
2018-03-27T01:42:35.382Z,3.94
2018-03-27T01:43:07.025Z,3.94
2018-03-27T01:43:38.655Z,3.94
2018-03-27T01:44:10.366Z,3.94
2018-03-27T01:44:41.991Z,3.56
2018-03-27T01:45:13.600Z,3.56
2018-03-27T01:45:45.236Z,3.56
2018-03-27T01:46:16.865Z,3.56
2018-03-27T01:46:48.512Z,3.56
2018-03-27T01:47:20.144Z,3.56
2018-03-27T01:47:51.789Z,3.56
2018-03-27T01:48:23.422Z,3.56
2018-03-27T01:48:55.088Z,3.56
2018-03-27T01:49:26.718Z,3.56
2018-03-27T01:49:58.330Z,3.56
2018-03-27T01:50:29.950Z,3.56
2018-03-27T01:51:01.586Z,3.56
2018-03-27T01:51:33.256Z,3.56
2018-03-27T01:52:04.880Z,3.56
2018-03-27T01:52:36.524Z,3.56
2018-03-27T01:53:08.152Z,3.56
2018-03-27T01:53:39.774Z,3.56
2018-03-27T01:54:11.422Z,3.56
2018-03-27T01:54:43.063Z,3.56
2018-03-27T01:55:14.727Z,3.56
2018-03-27T01:55:46.364Z,3.56
2018-03-27T01:56:17.994Z,3.56
2018-03-27T01:56:49.622Z,3.56
2018-03-27T01:57:21.269Z,3.56
2018-03-27T01:57:52.913Z,3.56
2018-03-27T01:58:24.550Z,3.56
2018-03-27T01:58:56.186Z,3.56
2018-03-27T01:59:27.822Z,3.56
2018-03-27T01:59:59.442Z,3.56
2018-03-27T02:00:31.070Z,3.56
2018-03-27T02:01:02.702Z,3.56
2018-03-27T02:01:34.341Z,3.56
2018-03-27T02:02:05.972Z,3.56
2018-03-27T02:02:37.599Z,3.56
2018-03-27T02:03:09.247Z,3.56
2018-03-27T02:03:40.886Z,3.56
2018-03-27T02:04:12.491Z,3.56
2018-03-27T02:04:44.150Z,3.56
2018-03-27T02:05:15.851Z,3.56
2018-03-27T02:05:47.446Z,3.56
2018-03-27T02:06:19.093Z,3.56
2018-03-27T02:06:50.742Z,3.56
2018-03-27T02:07:22.375Z,3.56
2018-03-27T02:07:54.033Z,3.56
2018-03-27T02:08:25.660Z,3.56
2018-03-27T02:08:57.302Z,3.56
2018-03-27T02:09:28.929Z,3.56
2018-03-27T02:10:00.543Z,3.56
2018-03-27T02:10:32.188Z,3.56
2018-03-27T02:11:10.002Z,3.56
2018-03-27T02:11:47.734Z,3.56
2018-03-27T02:12:25.462Z,3.56
2018-03-27T02:13:03.237Z,3.56
2018-03-27T02:13:41.038Z,3.56
2018-03-27T02:14:18.886Z,3.56
2018-03-27T02:14:56.663Z,3.56
2018-03-27T02:15:34.390Z,3.56
2018-03-27T02:16:12.164Z,3.56
2018-03-27T02:16:49.906Z,3.56
2018-03-27T02:17:27.662Z,3.56
2018-03-27T02:18:05.390Z,3.56
2018-03-27T02:18:43.196Z,3.56
2018-03-27T02:19:20.915Z,3.56
2018-03-27T02:19:58.669Z,3.56
2018-03-27T02:20:36.306Z,3.56
2018-03-27T02:21:14.016Z,3.56
2018-03-27T02:21:45.602Z,3.56
2018-03-27T02:22:17.242Z,3.56
2018-03-27T02:22:52.982Z,3.56
2018-03-27T02:23:30.604Z,3.56
2018-03-27T02:24:02.264Z,3.56
2018-03-27T02:24:34.915Z,3.56
2018-03-27T02:25:06.535Z,3.56
2018-03-27T02:25:38.160Z,3.56
2018-03-27T02:26:09.790Z,3.56
2018-03-27T02:26:41.442Z,3.56
2018-03-27T02:27:13.070Z,3.56
2018-03-27T02:27:44.702Z,3.56
2018-03-27T02:28:16.323Z,3.56
2018-03-27T02:28:47.961Z,3.56
2018-03-27T02:29:19.599Z,3.56
2018-03-27T02:29:51.232Z,3.56
2018-03-27T02:30:22.859Z,1.87
2018-03-27T02:30:54.500Z,1.87
2018-03-27T02:31:26.135Z,1.87
2018-03-27T02:31:57.774Z,1.87
2018-03-27T02:32:29.406Z,1.87
2018-03-27T02:33:01.048Z,1.87
2018-03-27T02:33:32.701Z,1.87
2018-03-27T02:34:04.334Z,1.87
2018-03-27T02:34:36.010Z,1.87
2018-03-27T02:35:07.665Z,1.87
2018-03-27T02:35:39.284Z,1.87
2018-03-27T02:36:10.914Z,1.87
2018-03-27T02:36:42.543Z,1.87
2018-03-27T02:37:14.201Z,1.87
2018-03-27T02:37:45.830Z,1.87
2018-03-27T02:38:17.474Z,1.87
2018-03-27T02:38:49.120Z,1.87
2018-03-27T02:39:20.783Z,1.87
2018-03-27T02:39:52.417Z,1.87
2018-03-27T02:40:24.048Z,1.87
2018-03-27T02:40:55.673Z,1.87
2018-03-27T02:41:27.280Z,1.87
2018-03-27T02:41:58.925Z,1.87
2018-03-27T02:42:30.613Z,1.87
2018-03-27T02:43:02.277Z,1.87
2018-03-27T02:43:33.884Z,1.87
2018-03-27T02:44:05.523Z,1.87
2018-03-27T02:44:37.164Z,1.87
2018-03-27T02:45:08.779Z,1.87
2018-03-27T02:45:40.442Z,1.87
2018-03-27T02:46:12.094Z,1.87
2018-03-27T02:46:43.735Z,1.87
2018-03-27T02:47:15.357Z,1.87
2018-03-27T02:47:46.998Z,1.87
2018-03-27T02:48:18.594Z,1.87
2018-03-27T02:48:50.237Z,1.87
2018-03-27T02:49:21.863Z,1.87
2018-03-27T02:49:53.481Z,1.87
2018-03-27T02:50:25.090Z,1.87
2018-03-27T02:50:56.730Z,1.87
2018-03-27T02:51:28.408Z,1.87
2018-03-27T02:52:00.036Z,1.87
2018-03-27T02:52:31.651Z,1.87
2018-03-27T02:53:03.293Z,1.87
2018-03-27T02:53:34.993Z,1.87
2018-03-27T02:54:06.645Z,1.87
2018-03-27T02:54:38.371Z,1.87
2018-03-27T02:55:09.954Z,1.87
2018-03-27T02:55:41.606Z,1.87
2018-03-27T02:56:13.230Z,1.87
2018-03-27T02:56:44.851Z,1.87
2018-03-27T02:57:16.487Z,1.87
2018-03-27T02:57:48.129Z,1.87
2018-03-27T02:58:19.776Z,1.87
2018-03-27T02:58:51.426Z,1.87
2018-03-27T02:59:23.072Z,1.87
2018-03-27T02:59:54.725Z,1.87
2018-03-27T03:00:26.339Z,1.87
2018-03-27T03:00:57.996Z,1.87
2018-03-27T03:01:29.664Z,1.87
2018-03-27T03:02:01.338Z,1.87
2018-03-27T03:02:32.974Z,1.87
2018-03-27T03:03:04.603Z,1.87
2018-03-27T03:03:36.266Z,1.87
2018-03-27T03:04:07.923Z,1.87
2018-03-27T03:04:39.556Z,1.87
2018-03-27T03:05:11.157Z,1.87
2018-03-27T03:05:42.787Z,1.87
2018-03-27T03:06:14.422Z,1.87
2018-03-27T03:06:46.090Z,1.87
2018-03-27T03:07:17.745Z,1.87
2018-03-27T03:07:49.363Z,1.87
2018-03-27T03:08:20.975Z,1.87
2018-03-27T03:08:53.144Z,1.87
2018-03-27T03:09:24.745Z,1.87
2018-03-27T03:09:56.360Z,1.87
2018-03-27T03:10:28.028Z,1.87
2018-03-27T03:10:59.648Z,1.87
2018-03-27T03:11:31.270Z,1.87
2018-03-27T03:12:02.912Z,1.87
2018-03-27T03:12:34.532Z,1.87
2018-03-27T03:13:06.145Z,1.87
2018-03-27T03:13:37.770Z,1.87
2018-03-27T03:14:09.409Z,1.87
2018-03-27T03:14:41.027Z,1.87
2018-03-27T03:15:12.640Z,1.87
2018-03-27T03:15:44.264Z,1.87
2018-03-27T03:16:15.882Z,1.87
2018-03-27T03:16:47.513Z,1.87
2018-03-27T03:17:19.145Z,1.87
2018-03-27T03:17:50.757Z,1.87
2018-03-27T03:18:22.359Z,1.87
2018-03-27T03:18:53.985Z,1.87
2018-03-27T03:19:25.609Z,1.87
2018-03-27T03:19:57.227Z,1.87
2018-03-27T03:20:28.866Z,1.87
2018-03-27T03:21:00.499Z,1.87
2018-03-27T03:21:32.126Z,1.87
2018-03-27T03:22:03.764Z,1.87
2018-03-27T03:22:35.391Z,1.87
2018-03-27T03:23:07.005Z,1.87
2018-03-27T03:23:38.613Z,1.87
2018-03-27T03:24:10.247Z,1.87
2018-03-27T03:24:41.867Z,1.87
2018-03-27T03:25:13.527Z,1.87
2018-03-27T03:25:45.161Z,1.87
2018-03-27T03:26:16.776Z,1.87
2018-03-27T03:26:48.387Z,1.87
2018-03-27T03:27:19.994Z,1.87
2018-03-27T03:27:51.636Z,1.06
2018-03-27T03:28:23.288Z,1.06
2018-03-27T03:28:54.887Z,1.06
2018-03-27T03:29:26.522Z,1.06
2018-03-27T03:29:58.138Z,1.06
2018-03-27T03:30:29.741Z,1.06
2018-03-27T03:31:01.385Z,1.06
2018-03-27T03:31:33.016Z,1.06
2018-03-27T03:32:04.637Z,1.06
2018-03-27T03:32:36.252Z,1.06
2018-03-27T03:33:07.891Z,1.06
2018-03-27T03:33:39.522Z,1.06
2018-03-27T03:34:11.148Z,1.06
2018-03-27T03:34:42.783Z,1.06
2018-03-27T03:35:14.408Z,1.06
2018-03-27T03:35:46.045Z,1.06
2018-03-27T03:36:17.667Z,1.06
2018-03-27T03:36:49.287Z,1.06
2018-03-27T03:37:20.929Z,1.06
2018-03-27T03:37:52.552Z,1.06
2018-03-27T03:38:24.175Z,1.06
2018-03-27T03:38:55.795Z,1.06
2018-03-27T03:39:27.426Z,1.06
2018-03-27T03:39:59.037Z,1.06
2018-03-27T03:40:30.661Z,1.06
2018-03-27T03:41:02.307Z,1.06
2018-03-27T03:41:33.917Z,1.06
2018-03-27T03:42:05.553Z,1.06
2018-03-27T03:42:37.153Z,1.06
2018-03-27T03:43:08.757Z,1.06
2018-03-27T03:43:40.379Z,1.06
2018-03-27T03:44:12.001Z,1.06
2018-03-27T03:44:43.633Z,1.06
2018-03-27T03:45:15.255Z,1.06
2018-03-27T03:45:46.868Z,1.06
2018-03-27T03:46:18.474Z,1.06
2018-03-27T03:46:50.087Z,1.87
2018-03-27T03:47:21.725Z,1.87
2018-03-27T03:47:53.337Z,1.87
2018-03-27T03:48:24.960Z,1.87
2018-03-27T03:48:56.638Z,1.87
2018-03-27T03:49:28.208Z,1.87
2018-03-27T03:49:59.831Z,1.87
2018-03-27T03:50:31.463Z,1.87
2018-03-27T03:51:03.088Z,1.87
2018-03-27T03:51:34.715Z,1.87
2018-03-27T03:52:06.343Z,1.87
2018-03-27T03:52:37.960Z,1.87
2018-03-27T03:53:09.612Z,1.87
2018-03-27T03:53:41.227Z,1.87
2018-03-27T03:54:12.858Z,1.87
2018-03-27T03:54:44.482Z,1.87
2018-03-27T03:55:16.101Z,1.87
2018-03-27T03:55:47.757Z,1.87
2018-03-27T03:56:19.390Z,1.87
2018-03-27T03:56:51.007Z,1.87
2018-03-27T03:57:22.625Z,1.87
2018-03-27T03:57:54.250Z,1.87
2018-03-27T03:58:25.877Z,1.87
2018-03-27T03:58:57.513Z,1.87
2018-03-27T03:59:29.135Z,1.87
2018-03-27T04:00:00.745Z,1.87
2018-03-27T04:00:32.359Z,1.87
2018-03-27T04:01:03.994Z,1.87
2018-03-27T04:01:35.625Z,1.87
2018-03-27T04:02:07.238Z,1.87
2018-03-27T04:02:38.871Z,1.87
2018-03-27T04:03:10.491Z,1.87
2018-03-27T04:03:42.101Z,1.87
2018-03-27T04:04:13.722Z,1.87
2018-03-27T04:04:45.349Z,1.87
2018-03-27T04:05:17.005Z,1.87
2018-03-27T04:05:48.631Z,1.87
2018-03-27T04:06:20.245Z,1.87
2018-03-27T04:06:51.885Z,1.87
2018-03-27T04:07:23.487Z,1.87
2018-03-27T04:07:55.114Z,1.87
2018-03-27T04:08:26.765Z,1.87
2018-03-27T04:08:58.407Z,1.87
2018-03-27T04:09:30.049Z,1.87
2018-03-27T04:10:01.643Z,1.87
2018-03-27T04:10:33.273Z,1.87
2018-03-27T04:11:04.899Z,1.87
2018-03-27T04:11:36.511Z,1.87
2018-03-27T04:12:08.139Z,1.87
2018-03-27T04:12:39.749Z,1.87
2018-03-27T04:13:11.365Z,1.87
2018-03-27T04:13:43.003Z,1.87
2018-03-27T04:14:14.630Z,1.87
2018-03-27T04:14:46.251Z,1.87
2018-03-27T04:15:17.850Z,1.87
2018-03-27T04:15:49.483Z,1.87
2018-03-27T04:16:21.113Z,1.87
2018-03-27T04:16:52.727Z,1.87
2018-03-27T04:17:24.345Z,1.87
2018-03-27T04:17:55.971Z,1.87
2018-03-27T04:18:27.590Z,1.87
2018-03-27T04:18:59.247Z,1.87
2018-03-27T04:19:30.916Z,1.81
2018-03-27T04:20:02.587Z,1.81
2018-03-27T04:20:34.186Z,1.81
2018-03-27T04:21:05.821Z,1.81
2018-03-27T04:21:37.456Z,1.81
2018-03-27T04:22:09.069Z,1.81
2018-03-27T04:22:40.687Z,1.81
2018-03-27T04:23:12.321Z,1.81
2018-03-27T04:23:43.933Z,1.81
2018-03-27T04:24:15.563Z,1.81
2018-03-27T04:24:47.179Z,1.81
2018-03-27T04:25:18.800Z,1.81
2018-03-27T04:25:50.429Z,1.81
2018-03-27T04:26:22.049Z,1.81
2018-03-27T04:26:53.689Z,1.81
2018-03-27T04:27:25.318Z,1.81
2018-03-27T04:27:56.943Z,1.81
2018-03-27T04:28:28.577Z,1.81
2018-03-27T04:29:00.221Z,1.81
2018-03-27T04:29:31.861Z,1.81
2018-03-27T04:30:03.519Z,1.81
2018-03-27T04:30:35.129Z,1.81
2018-03-27T04:31:06.742Z,1.81
2018-03-27T04:31:38.348Z,1.81
2018-03-27T04:32:09.975Z,1.81
2018-03-27T04:32:41.615Z,1.81
2018-03-27T04:33:13.243Z,1.81
2018-03-27T04:33:44.878Z,1.81
2018-03-27T04:34:16.509Z,1.81
2018-03-27T04:34:48.145Z,1.81
2018-03-27T04:35:19.771Z,1.81
2018-03-27T04:35:51.399Z,1.81
2018-03-27T04:36:23.025Z,1.81
2018-03-27T04:36:54.653Z,1.81
2018-03-27T04:37:26.278Z,1.81
2018-03-27T04:37:57.912Z,1.81
2018-03-27T04:38:29.533Z,1.81
2018-03-27T04:39:01.153Z,1.81
2018-03-27T04:39:32.849Z,1.81
2018-03-27T04:40:04.506Z,1.81
2018-03-27T04:40:36.141Z,1.81
2018-03-27T04:41:07.833Z,1.81
2018-03-27T04:41:39.405Z,1.81
2018-03-27T04:42:11.031Z,1.81
2018-03-27T04:42:42.655Z,1.81
2018-03-27T04:43:14.277Z,1.81
2018-03-27T04:43:45.881Z,1.81
2018-03-27T04:44:17.509Z,1.81
2018-03-27T04:44:49.151Z,1.81
2018-03-27T04:45:20.785Z,1.81
2018-03-27T04:45:52.445Z,1.81
2018-03-27T04:46:24.063Z,1.81
2018-03-27T04:46:55.694Z,1.81
2018-03-27T04:47:27.332Z,1.81
2018-03-27T04:47:58.975Z,1.81
2018-03-27T04:48:30.591Z,1.81
2018-03-27T04:49:02.203Z,1.81
2018-03-27T04:49:33.827Z,1.81
2018-03-27T04:50:05.468Z,1.81
2018-03-27T04:50:37.091Z,1.81
2018-03-27T04:51:08.695Z,1.81
2018-03-27T04:51:40.317Z,1.81
2018-03-27T04:52:11.943Z,1.81
2018-03-27T04:52:43.549Z,1.81
2018-03-27T04:53:15.165Z,1.81
2018-03-27T04:53:46.789Z,1.81
2018-03-27T04:54:18.403Z,1.81
2018-03-27T04:54:50.031Z,1.81
2018-03-27T04:55:21.641Z,1.81
2018-03-27T04:55:53.271Z,1.81
2018-03-27T04:56:24.899Z,1.81
2018-03-27T04:56:56.516Z,1.81
2018-03-27T04:57:28.133Z,1.81
2018-03-27T04:57:59.755Z,1.81
2018-03-27T04:58:31.381Z,1.81
2018-03-27T04:59:03.000Z,1.81
2018-03-27T04:59:34.599Z,1.81
2018-03-27T05:00:06.224Z,1.81
2018-03-27T05:00:37.871Z,1.81
2018-03-27T05:01:09.627Z,1.81
2018-03-27T05:01:41.256Z,1.81
2018-03-27T05:02:12.873Z,1.81
2018-03-27T05:02:44.495Z,1.81
2018-03-27T05:03:16.117Z,1.81
2018-03-27T05:03:47.719Z,1.81
2018-03-27T05:04:19.323Z,1.81
2018-03-27T05:04:50.947Z,1.81
2018-03-27T05:05:22.580Z,1.81
2018-03-27T05:05:54.253Z,1.81
2018-03-27T05:06:25.837Z,1.81
2018-03-27T05:06:57.484Z,1.81
2018-03-27T05:07:29.103Z,1.81
2018-03-27T05:08:00.725Z,1.81
2018-03-27T05:08:32.364Z,1.81
2018-03-27T05:09:04.792Z,1.81
2018-03-27T05:09:36.678Z,1.12
2018-03-27T05:10:08.321Z,1.12
2018-03-27T05:10:39.929Z,1.12
2018-03-27T05:11:11.580Z,1.12
2018-03-27T05:11:43.194Z,1.12
2018-03-27T05:12:14.816Z,1.12
2018-03-27T05:12:46.433Z,1.12
2018-03-27T05:13:18.049Z,1.12
2018-03-27T05:13:49.660Z,1.12
2018-03-27T05:14:21.305Z,1.12
2018-03-27T05:14:52.937Z,1.12
2018-03-27T05:15:24.581Z,1.12
2018-03-27T05:15:56.243Z,1.12
2018-03-27T05:16:27.849Z,1.12
2018-03-27T05:16:59.469Z,1.12
2018-03-27T05:17:31.085Z,1.12
2018-03-27T05:18:02.715Z,1.12
2018-03-27T05:18:34.332Z,1.12
2018-03-27T05:19:05.983Z,1.12
2018-03-27T05:19:37.601Z,1.12
2018-03-27T05:20:09.222Z,1.12
2018-03-27T05:20:40.847Z,1.12
2018-03-27T05:21:12.457Z,1.12
2018-03-27T05:21:44.089Z,1.12
2018-03-27T05:22:15.725Z,1.12
2018-03-27T05:22:47.335Z,1.12
2018-03-27T05:23:18.949Z,1.12
2018-03-27T05:23:50.569Z,1.12
2018-03-27T05:24:22.206Z,1.12
2018-03-27T05:24:53.835Z,1.12
2018-03-27T05:25:25.469Z,1.12
2018-03-27T05:25:57.103Z,1.12
2018-03-27T05:26:28.738Z,1.25
2018-03-27T05:27:00.346Z,1.25
2018-03-27T05:27:31.961Z,1.25
2018-03-27T05:28:03.612Z,1.25
2018-03-27T05:28:35.258Z,1.25
2018-03-27T05:29:06.879Z,1.25
2018-03-27T05:29:38.496Z,1.25
2018-03-27T05:30:10.104Z,1.25
2018-03-27T05:30:41.758Z,1.25
2018-03-27T05:31:13.369Z,1.25
2018-03-27T05:31:44.992Z,1.25
2018-03-27T05:32:16.616Z,1.25
2018-03-27T05:32:48.245Z,1.25
2018-03-27T05:33:19.890Z,1.25
2018-03-27T05:33:51.504Z,1.25
2018-03-27T05:34:23.113Z,1.25
2018-03-27T05:34:54.715Z,1.25
2018-03-27T05:35:26.321Z,1.25
2018-03-27T05:35:57.924Z,1.25
2018-03-27T05:36:29.571Z,1.25
2018-03-27T05:37:01.179Z,1.25
2018-03-27T05:37:32.796Z,1.25
2018-03-27T05:38:04.431Z,1.25
2018-03-27T05:38:36.053Z,1.25
2018-03-27T05:39:07.701Z,1.25
2018-03-27T05:39:39.320Z,1.25
2018-03-27T05:40:10.960Z,1.25
2018-03-27T05:40:42.582Z,1.25
2018-03-27T05:41:14.200Z,1.25
2018-03-27T05:41:45.841Z,1.25
2018-03-27T05:42:17.480Z,1.25
2018-03-27T05:42:49.109Z,1.25
2018-03-27T05:43:20.762Z,1.25
2018-03-27T05:43:52.400Z,1.25
2018-03-27T05:44:24.033Z,1.25
2018-03-27T05:44:55.653Z,1.25
2018-03-27T05:45:27.267Z,1.25
2018-03-27T05:45:58.898Z,1.25
2018-03-27T05:46:30.512Z,1.25
2018-03-27T05:47:02.128Z,1.25
2018-03-27T05:47:33.758Z,1.25
2018-03-27T05:48:05.404Z,1.25
2018-03-27T05:48:37.018Z,1.25
2018-03-27T05:49:08.666Z,1.25
2018-03-27T05:49:40.302Z,1.25
2018-03-27T05:50:11.915Z,1.25
2018-03-27T05:50:43.539Z,1.25
2018-03-27T05:51:15.168Z,1.25
2018-03-27T05:51:46.812Z,1.25
2018-03-27T05:52:18.436Z,1.25
2018-03-27T05:52:50.051Z,1.37
2018-03-27T05:53:21.681Z,1.37
2018-03-27T05:53:53.320Z,1.37
2018-03-27T05:54:24.930Z,1.37
2018-03-27T05:54:56.578Z,1.37
2018-03-27T05:55:28.188Z,1.37
2018-03-27T05:55:59.862Z,1.37
2018-03-27T05:56:31.460Z,1.37
2018-03-27T05:57:03.124Z,1.37
2018-03-27T05:57:34.725Z,1.44
2018-03-27T05:58:06.351Z,1.44
2018-03-27T05:58:37.969Z,1.44
2018-03-27T05:59:09.640Z,1.44
2018-03-27T05:59:41.272Z,1.44
2018-03-27T06:00:12.921Z,1.44
2018-03-27T06:00:44.537Z,1.44
2018-03-27T06:01:16.155Z,1.44
2018-03-27T06:01:47.780Z,1.44
2018-03-27T06:02:19.420Z,1.44
2018-03-27T06:02:51.058Z,1.44
2018-03-27T06:03:22.693Z,1.44
2018-03-27T06:03:54.303Z,1.44
2018-03-27T06:04:25.934Z,1.44
2018-03-27T06:04:57.548Z,1.56
2018-03-27T06:05:29.162Z,1.56
2018-03-27T06:06:00.788Z,1.56
2018-03-27T06:06:32.421Z,1.56
2018-03-27T06:07:04.078Z,1.56
2018-03-27T06:07:35.719Z,1.56
2018-03-27T06:08:07.343Z,1.56
2018-03-27T06:08:38.969Z,1.56
2018-03-27T06:09:10.597Z,1.56
2018-03-27T06:09:42.223Z,1.56
2018-03-27T06:10:13.844Z,1.56
2018-03-27T06:10:45.472Z,1.56
2018-03-27T06:11:17.148Z,1.56
2018-03-27T06:11:48.769Z,1.56
2018-03-27T06:12:20.392Z,1.56
2018-03-27T06:12:52.012Z,1.56
2018-03-27T06:13:23.620Z,1.56
2018-03-27T06:13:55.224Z,1.56
2018-03-27T06:14:26.837Z,1.56
2018-03-27T06:14:58.501Z,1.56
2018-03-27T06:15:30.132Z,1.56
2018-03-27T06:16:01.793Z,1.56
2018-03-27T06:16:33.436Z,1.56
2018-03-27T06:17:05.093Z,1.56
2018-03-27T06:17:36.722Z,1.56
2018-03-27T06:18:08.370Z,1.56
2018-03-27T06:18:40.087Z,1.56
2018-03-27T06:19:11.684Z,1.56
2018-03-27T06:19:43.374Z,1.56
2018-03-27T06:20:15.037Z,1.56
2018-03-27T06:20:46.644Z,1.56
2018-03-27T06:21:18.256Z,1.56
2018-03-27T06:21:49.879Z,1.56
2018-03-27T06:22:21.490Z,1.56
2018-03-27T06:22:53.117Z,1.56
2018-03-27T06:23:24.745Z,1.56
2018-03-27T06:23:56.360Z,1.56
2018-03-27T06:24:27.983Z,2.06
2018-03-27T06:24:59.594Z,2.06
2018-03-27T06:25:31.244Z,2.06
2018-03-27T06:26:02.889Z,2.06
2018-03-27T06:26:34.512Z,2.06
2018-03-27T06:27:06.122Z,2.06
2018-03-27T06:27:37.778Z,2.06
2018-03-27T06:28:09.392Z,2.06
2018-03-27T06:28:41.020Z,2.06
2018-03-27T06:29:12.640Z,2.31
2018-03-27T06:29:44.284Z,2.31
2018-03-27T06:30:15.932Z,2.31
2018-03-27T06:30:47.585Z,2.31
2018-03-27T06:31:19.194Z,2.31
2018-03-27T06:31:50.860Z,2.31
2018-03-27T06:32:22.468Z,2.31
2018-03-27T06:32:54.089Z,2.31
2018-03-27T06:33:25.711Z,2.31
2018-03-27T06:33:57.314Z,2.31
2018-03-27T06:34:28.924Z,2.31
2018-03-27T06:35:00.556Z,2.31
2018-03-27T06:35:32.175Z,2.31
2018-03-27T06:36:03.800Z,2.31
2018-03-27T06:36:35.422Z,2.31
2018-03-27T06:37:07.063Z,2.31
2018-03-27T06:37:38.706Z,2.31
2018-03-27T06:38:10.334Z,2.31
2018-03-27T06:38:41.959Z,2.31
2018-03-27T06:39:13.574Z,2.31
2018-03-27T06:39:45.252Z,2.31
2018-03-27T06:40:16.884Z,2.31
2018-03-27T06:40:48.496Z,2.31
2018-03-27T06:41:20.120Z,2.31
2018-03-27T06:41:51.779Z,2.31
2018-03-27T06:42:23.410Z,2.31
2018-03-27T06:42:55.044Z,2.31
2018-03-27T06:43:26.645Z,2.31
2018-03-27T06:43:58.276Z,2.31
2018-03-27T06:44:29.902Z,2.31
2018-03-27T06:45:01.533Z,2.31
2018-03-27T06:45:33.163Z,2.31
2018-03-27T06:46:04.787Z,2.31
2018-03-27T06:46:36.412Z,2.31
2018-03-27T06:47:08.032Z,2.31
2018-03-27T06:47:39.676Z,2.31
2018-03-27T06:48:11.269Z,2.31
2018-03-27T06:48:42.919Z,2.31
2018-03-27T06:49:14.538Z,2.31
2018-03-27T06:49:46.153Z,2.31
2018-03-27T06:50:17.781Z,2.31
2018-03-27T06:50:49.402Z,2.31
2018-03-27T06:51:21.032Z,2.31
2018-03-27T06:51:52.668Z,2.31
2018-03-27T06:52:24.286Z,2.31
2018-03-27T06:52:55.900Z,2.31
2018-03-27T06:53:27.530Z,2.31
2018-03-27T06:53:59.165Z,2.31
2018-03-27T06:54:30.804Z,2.31
2018-03-27T06:55:02.445Z,2.31
2018-03-27T06:55:34.074Z,2.31
2018-03-27T06:56:05.691Z,2.31
2018-03-27T06:56:37.322Z,2.31
2018-03-27T06:57:08.962Z,2.31
2018-03-27T06:57:40.576Z,2.31
2018-03-27T06:58:12.229Z,2.31
2018-03-27T06:58:43.865Z,2.31
2018-03-27T06:59:15.514Z,2.31
2018-03-27T06:59:47.216Z,2.31
2018-03-27T07:00:18.888Z,2.31
2018-03-27T07:00:50.541Z,2.31
2018-03-27T07:01:22.216Z,2.31
2018-03-27T07:01:53.864Z,2.31
2018-03-27T07:02:25.492Z,2.31
2018-03-27T07:02:57.152Z,2.31
2018-03-27T07:03:28.776Z,2.31
2018-03-27T07:04:00.446Z,2.31
2018-03-27T07:04:32.058Z,2.31
2018-03-27T07:05:03.709Z,2.31
2018-03-27T07:05:35.410Z,2.31
2018-03-27T07:06:07.073Z,2.31
2018-03-27T07:06:38.711Z,2.31
2018-03-27T07:07:10.346Z,2.31
2018-03-27T07:07:42.027Z,2.31
2018-03-27T07:08:13.645Z,2.31
2018-03-27T07:08:45.284Z,2.31
2018-03-27T07:09:16.922Z,2.31
2018-03-27T07:09:48.560Z,2.31
2018-03-27T07:10:20.298Z,2.31